createdAt,value
2023-04-01T00:01:59.593Z,85.55
2023-04-01T00:04:28.099Z,85.62
2023-04-01T00:06:57.073Z,85.52
2023-04-01T00:09:25.656Z,85.39
2023-04-01T00:11:58.574Z,85.41
2023-04-01T00:14:27.129Z,85.42
2023-04-01T00:16:58.123Z,85.46
2023-04-01T00:19:26.756Z,85.47
2023-04-01T00:21:55.442Z,85.30
2023-04-01T00:24:24.443Z,85.40
2023-04-01T00:26:53.132Z,85.44
2023-04-01T00:29:30.631Z,85.56
2023-04-01T00:31:59.288Z,85.43
2023-04-01T00:34:28.105Z,85.28
2023-04-01T00:36:56.694Z,85.56
2023-04-01T00:39:25.634Z,85.35
2023-04-01T00:41:55.300Z,85.14
2023-04-01T00:44:34.350Z,85.09
2023-04-01T00:47:03.037Z,84.85
2023-04-01T00:49:44.098Z,85.07
2023-04-01T00:52:14.154Z,85.25
2023-04-01T00:54:43.500Z,85.49
2023-04-01T00:57:18.408Z,85.50
2023-04-01T00:59:48.693Z,85.49
2023-04-01T01:02:17.228Z,85.36
2023-04-01T01:04:46.783Z,85.50
2023-04-01T01:07:44.850Z,85.84
2023-04-01T01:10:27.667Z,85.58
2023-04-01T01:13:03.322Z,85.66
2023-04-01T01:15:59.759Z,85.63
2023-04-01T01:18:40.429Z,85.87
2023-04-01T01:21:09.231Z,85.99
2023-04-01T01:24:08.301Z,85.83
2023-04-01T01:26:41.126Z,86.00
2023-04-01T01:29:30.594Z,86.37
2023-04-01T01:31:58.975Z,86.48
2023-04-01T01:34:35.582Z,86.21
2023-04-01T01:37:16.318Z,86.11
2023-04-01T01:39:48.170Z,86.28
2023-04-01T01:42:18.214Z,86.34
2023-04-01T01:44:48.418Z,86.23
2023-04-01T01:47:17.306Z,86.16
2023-04-01T01:49:46.199Z,86.24
2023-04-01T01:52:14.988Z,86.30
2023-04-01T01:54:54.021Z,86.25
2023-04-01T01:57:27.753Z,86.11
2023-04-01T02:00:14.794Z,86.14
2023-04-01T02:02:47.596Z,86.27
2023-04-01T02:05:17.863Z,86.31
2023-04-01T02:07:50.654Z,86.29
2023-04-01T02:10:19.674Z,86.35
2023-04-01T02:12:52.836Z,86.11
2023-04-01T02:15:22.864Z,86.19
2023-04-01T02:17:52.404Z,86.23
2023-04-01T02:20:23.249Z,86.27
2023-04-01T02:22:56.621Z,86.09
2023-04-01T02:25:29.362Z,86.19
2023-04-01T02:27:58.790Z,86.40
2023-04-01T02:30:28.916Z,86.56
2023-04-01T02:32:58.453Z,86.41
2023-04-01T02:35:27.410Z,86.26
2023-04-01T02:37:55.926Z,86.28
2023-04-01T02:40:24.378Z,86.50
2023-04-01T02:42:53.271Z,86.52
2023-04-01T02:45:22.474Z,86.28
2023-04-01T02:47:51.223Z,86.37
2023-04-01T02:50:19.864Z,86.49
2023-04-01T02:52:49.671Z,86.56
2023-04-01T02:55:18.973Z,86.75
2023-04-01T02:57:52.782Z,86.60
2023-04-01T03:00:21.878Z,86.87
2023-04-01T03:02:50.790Z,87.01
2023-04-01T03:05:19.574Z,87.07
2023-04-01T03:07:49.585Z,86.93
2023-04-01T03:10:18.888Z,86.69
2023-04-01T03:12:47.368Z,86.77
2023-04-01T03:15:16.591Z,86.85
2023-04-01T03:17:45.777Z,86.86
2023-04-01T03:20:14.372Z,86.75
2023-04-01T03:22:43.242Z,86.58
2023-04-01T03:25:12.242Z,86.60
2023-04-01T03:27:41.646Z,86.65
2023-04-01T03:30:11.107Z,86.82
2023-04-01T03:32:44.742Z,86.71
2023-04-01T03:35:13.767Z,86.49
2023-04-01T03:37:42.244Z,86.45
2023-04-01T03:40:11.583Z,86.52
2023-04-01T03:42:40.856Z,86.35
2023-04-01T03:45:13.217Z,86.26
2023-04-01T03:47:43.206Z,86.32
2023-04-01T03:50:12.449Z,86.43
2023-04-01T03:52:41.751Z,86.70
2023-04-01T03:55:10.634Z,86.62
2023-04-01T03:57:43.728Z,86.64
2023-04-01T04:00:17.883Z,86.78
2023-04-01T04:02:51.762Z,86.93
2023-04-01T04:05:24.686Z,86.85
2023-04-01T04:07:54.409Z,86.60
2023-04-01T04:10:24.402Z,86.42
2023-04-01T04:12:55.038Z,86.43
2023-04-01T04:15:24.633Z,86.57
2023-04-01T04:17:53.585Z,86.66
2023-04-01T04:20:23.435Z,86.53
2023-04-01T04:22:51.932Z,86.67
2023-04-01T04:25:20.604Z,87.05
2023-04-01T04:27:50.829Z,87.28
2023-04-01T04:30:19.317Z,87.02
2023-04-01T04:32:48.331Z,86.95
2023-04-01T04:35:17.611Z,86.84
2023-04-01T04:37:48.139Z,86.87
2023-04-01T04:40:17.750Z,86.50
2023-04-01T04:42:46.442Z,85.96
2023-04-01T04:45:16.660Z,85.49
2023-04-01T04:47:54.382Z,85.30
2023-04-01T04:50:24.860Z,85.33
2023-04-01T04:52:53.386Z,85.14
2023-04-01T04:55:22.380Z,84.79
2023-04-01T04:57:55.978Z,84.57
2023-04-01T05:00:24.667Z,84.61
2023-04-01T05:03:04.787Z,84.36
2023-04-01T05:05:34.980Z,84.16
2023-04-01T05:08:04.381Z,84.32
2023-04-01T05:10:33.249Z,84.20
2023-04-01T05:13:01.869Z,84.04
2023-04-01T05:15:38.712Z,83.87
2023-04-01T05:18:10.643Z,83.81
2023-04-01T05:20:39.575Z,83.67
2023-04-01T05:23:08.051Z,83.70
2023-04-01T05:25:39.230Z,83.78
2023-04-01T05:28:08.215Z,83.69
2023-04-01T05:30:37.920Z,83.32
2023-04-01T05:33:21.241Z,82.95
2023-04-01T05:35:49.975Z,83.15
2023-04-01T05:38:18.649Z,82.87
2023-04-01T05:40:47.408Z,82.76
2023-04-01T05:43:15.790Z,82.28
2023-04-01T05:45:45.920Z,81.77
2023-04-01T05:48:17.364Z,81.68
2023-04-01T05:50:51.069Z,81.63
2023-04-01T05:53:19.759Z,81.69
2023-04-01T05:55:48.139Z,81.56
2023-04-01T05:58:19.180Z,81.37
2023-04-01T06:00:53.615Z,81.27
2023-04-01T06:03:34.474Z,81.13
2023-04-01T06:06:03.269Z,81.09
2023-04-01T06:08:34.825Z,81.12
2023-04-01T06:11:06.276Z,81.13
2023-04-01T06:13:41.010Z,81.16
2023-04-01T06:16:22.953Z,81.26
2023-04-01T06:18:51.799Z,81.04
2023-04-01T06:21:38.217Z,80.94
2023-04-01T06:24:29.524Z,81.35
2023-04-01T06:27:34.880Z,81.77
2023-04-01T06:30:22.112Z,81.73
2023-04-01T06:33:10.250Z,81.33
2023-04-01T06:36:07.123Z,80.36
2023-04-01T06:38:58.313Z,80.11
2023-04-01T06:41:32.730Z,80.32
2023-04-01T06:44:11.454Z,80.24
2023-04-01T06:47:00.662Z,79.60
2023-04-01T06:49:58.805Z,79.09
2023-04-01T06:53:04.253Z,78.08
2023-04-01T06:55:55.095Z,77.53
2023-04-01T06:58:36.259Z,76.84
2023-04-01T07:01:07.371Z,76.51
2023-04-01T07:03:42.732Z,76.56
2023-04-01T07:06:25.458Z,76.66
2023-04-01T07:08:56.181Z,76.47
2023-04-01T07:11:38.646Z,76.44
2023-04-01T07:14:47.112Z,75.42
2023-04-01T07:17:22.831Z,74.31
2023-04-01T07:20:00.790Z,74.14
2023-04-01T07:22:34.898Z,74.18
2023-04-01T07:25:16.357Z,74.41
2023-04-01T07:27:46.604Z,74.07
2023-04-01T07:30:19.909Z,73.56
2023-04-01T07:32:57.414Z,73.29
2023-04-01T07:35:39.958Z,72.87
2023-04-01T07:38:27.247Z,72.45
2023-04-01T07:40:56.646Z,72.52
2023-04-01T07:43:38.737Z,72.36
2023-04-01T07:47:03.332Z,72.30
2023-04-01T07:49:45.747Z,72.79
2023-04-01T07:52:27.038Z,73.01
2023-04-01T07:55:15.287Z,73.14
2023-04-01T07:58:01.168Z,73.26
2023-04-01T08:00:47.988Z,73.03
2023-04-01T08:05:00.870Z,73.53
2023-04-01T08:07:32.988Z,73.97
2023-04-01T08:11:04.031Z,73.77
2023-04-01T08:14:13.005Z,73.87
2023-04-01T08:17:07.195Z,73.60
2023-04-01T08:19:53.286Z,73.11
2023-04-01T08:22:28.819Z,72.58
2023-04-01T08:25:03.738Z,72.33
2023-04-01T08:27:39.160Z,71.55
2023-04-01T08:30:22.845Z,71.48
2023-04-01T08:32:59.932Z,71.61
2023-04-01T08:35:43.186Z,70.99
2023-04-01T08:38:38.444Z,69.40
2023-04-01T08:41:28.825Z,68.40
2023-04-01T08:44:45.537Z,68.61
2023-04-01T08:47:45.190Z,68.66
2023-04-01T08:50:33.207Z,67.66
2023-04-01T08:53:26.254Z,66.60
2023-04-01T08:56:26.277Z,66.89
2023-04-01T08:58:59.434Z,66.83
2023-04-01T09:01:52.147Z,67.03
2023-04-01T09:04:59.412Z,65.91
2023-04-01T09:07:52.780Z,65.11
2023-04-01T09:11:01.197Z,65.41
2023-04-01T09:14:30.623Z,64.72
2023-04-01T09:17:31.168Z,64.27
2023-04-01T09:20:40.489Z,63.92
2023-04-01T09:23:34.574Z,62.30
2023-04-01T09:26:40.850Z,60.31
2023-04-01T09:29:37.486Z,59.39
2023-04-01T09:32:12.319Z,58.27
2023-04-01T09:35:24.735Z,58.00
2023-04-01T09:38:10.022Z,57.81
2023-04-01T09:40:46.492Z,57.79
2023-04-01T09:43:28.587Z,57.74
2023-04-01T09:46:16.072Z,58.58
2023-04-01T09:48:56.786Z,58.87
2023-04-01T09:51:38.273Z,57.93
2023-04-01T09:54:30.422Z,57.72
2023-04-01T09:57:31.654Z,57.39
2023-04-01T10:00:40.495Z,56.65
2023-04-01T10:03:28.481Z,56.41
2023-04-01T10:06:16.987Z,56.36
2023-04-01T10:09:18.440Z,56.22
2023-04-01T10:11:57.681Z,55.27
2023-04-01T10:14:38.248Z,54.97
2023-04-01T10:17:23.436Z,55.48
2023-04-01T10:20:21.296Z,54.61
2023-04-01T10:23:38.940Z,54.66
2023-04-01T10:26:14.587Z,55.28
2023-04-01T10:29:04.056Z,55.81
2023-04-01T10:31:54.777Z,55.95
2023-04-01T10:34:30.311Z,55.72
2023-04-01T10:37:00.741Z,55.97
2023-04-01T10:39:39.210Z,56.39
2023-04-01T10:42:38.898Z,56.59
2023-04-01T10:45:37.230Z,56.38
2023-04-01T10:48:35.347Z,56.77
2023-04-01T10:51:36.182Z,57.13
2023-04-01T10:54:26.608Z,57.82
2023-04-01T10:57:31.612Z,57.59
2023-04-01T11:00:31.137Z,57.22
2023-04-01T11:03:30.026Z,56.79
2023-04-01T11:07:11.747Z,56.67
2023-04-01T11:10:18.828Z,56.69
2023-04-01T11:13:13.735Z,56.52
2023-04-01T11:15:46.227Z,56.38
2023-04-01T11:18:52.094Z,55.93
2023-04-01T11:21:59.674Z,56.12
2023-04-01T11:25:27.043Z,56.89
2023-04-01T11:28:18.893Z,56.92
2023-04-01T11:31:05.826Z,57.59
2023-04-01T11:34:10.218Z,57.89
2023-04-01T11:37:23.860Z,58.05
2023-04-01T11:40:49.697Z,57.92
2023-04-01T11:43:45.930Z,57.52
2023-04-01T11:46:39.509Z,57.60
2023-04-01T11:49:26.525Z,58.12
2023-04-01T11:52:27.491Z,57.78
2023-04-01T11:54:59.439Z,57.49
2023-04-01T11:57:44.511Z,57.63
2023-04-01T12:00:19.850Z,57.75
2023-04-01T12:02:58.647Z,57.58
2023-04-01T12:06:05.256Z,56.98
2023-04-01T12:08:55.969Z,54.61
2023-04-01T12:11:49.852Z,53.40
2023-04-01T12:14:39.829Z,52.73
2023-04-01T12:17:16.333Z,53.25
2023-04-01T12:20:16.856Z,53.10
2023-04-01T12:23:20.754Z,52.56
2023-04-01T12:25:49.440Z,52.75
2023-04-01T12:28:46.186Z,52.56
2023-04-01T12:31:41.308Z,52.83
2023-04-01T12:34:13.265Z,53.21
2023-04-01T12:36:57.217Z,53.46
2023-04-01T12:39:40.809Z,53.89
2023-04-01T12:42:14.043Z,53.30
2023-04-01T12:44:57.890Z,53.10
2023-04-01T12:47:48.453Z,53.21
2023-04-01T12:50:42.165Z,53.06
2023-04-01T12:53:35.330Z,53.17
2023-04-01T12:56:05.150Z,53.82
2023-04-01T12:58:52.608Z,54.38
2023-04-01T13:01:32.670Z,55.16
2023-04-01T13:04:35.312Z,55.66
2023-04-01T13:07:38.264Z,56.14
2023-04-01T13:10:13.856Z,56.36
2023-04-01T13:13:07.160Z,55.09
2023-04-01T13:15:41.780Z,54.57
2023-04-01T13:18:16.372Z,54.43
2023-04-01T13:20:57.149Z,54.69
2023-04-01T13:23:56.662Z,55.50
2023-04-01T13:26:40.914Z,57.72
2023-04-01T13:29:18.395Z,58.93
2023-04-01T13:31:57.076Z,59.12
2023-04-01T13:34:56.949Z,59.00
2023-04-01T13:37:53.080Z,58.62
2023-04-01T13:40:39.353Z,58.36
2023-04-01T13:43:47.803Z,57.87
2023-04-01T13:46:51.416Z,56.95
2023-04-01T13:49:53.995Z,57.15
2023-04-01T13:52:42.546Z,57.51
2023-04-01T13:55:38.987Z,57.58
2023-04-01T13:58:18.339Z,58.03
2023-04-01T14:01:03.724Z,58.76
2023-04-01T14:04:06.092Z,59.16
2023-04-01T14:07:06.115Z,59.29
2023-04-01T14:10:06.948Z,59.68
2023-04-01T14:12:48.545Z,59.30
2023-04-01T14:15:35.839Z,59.35
2023-04-01T14:18:27.436Z,59.49
2023-04-01T14:21:18.110Z,59.14
2023-04-01T14:23:56.010Z,59.15
2023-04-01T14:27:10.572Z,58.95
2023-04-01T14:29:39.688Z,58.87
2023-04-01T14:32:19.213Z,59.22
2023-04-01T14:35:12.584Z,59.14
2023-04-01T14:38:00.436Z,59.15
2023-04-01T14:40:44.582Z,59.42
2023-04-01T14:43:29.436Z,59.47
2023-04-01T14:46:22.956Z,59.86
2023-04-01T14:48:51.290Z,60.16
2023-04-01T14:51:36.150Z,60.12
2023-04-01T14:54:24.199Z,60.12
2023-04-01T14:57:02.979Z,60.27
2023-04-01T14:59:35.193Z,60.29
2023-04-01T15:02:42.055Z,60.40
2023-04-01T15:05:33.015Z,60.58
2023-04-01T15:08:23.624Z,60.71
2023-04-01T15:10:58.220Z,60.98
2023-04-01T15:13:45.970Z,61.34
2023-04-01T15:16:45.668Z,61.70
2023-04-01T15:19:36.492Z,61.96
2023-04-01T15:22:23.141Z,62.33
2023-04-01T15:25:06.727Z,62.62
2023-04-01T15:27:44.733Z,62.83
2023-04-01T15:30:23.968Z,63.23
2023-04-01T15:33:01.694Z,63.58
2023-04-01T15:35:58.653Z,63.67
2023-04-01T15:38:42.978Z,63.90
2023-04-01T15:41:19.041Z,64.38
2023-04-01T15:43:50.831Z,64.80
2023-04-01T15:46:31.603Z,64.97
2023-04-01T15:49:00.889Z,65.68
2023-04-01T15:51:52.201Z,66.15
2023-04-01T15:54:32.557Z,66.84
2023-04-01T15:57:04.228Z,67.33
2023-04-01T15:59:45.289Z,67.52
2023-04-01T16:02:46.893Z,67.70
2023-04-01T16:05:37.654Z,68.15
2023-04-01T16:08:39.584Z,68.31
2023-04-01T16:11:20.601Z,68.64
2023-04-01T16:14:21.632Z,68.99
2023-04-01T16:17:39.017Z,69.17
2023-04-01T16:20:27.741Z,69.23
2023-04-01T16:23:00.212Z,69.46
2023-04-01T16:25:43.074Z,69.89
2023-04-01T16:28:33.966Z,70.16
2023-04-01T16:31:28.952Z,70.66
2023-04-01T16:34:12.791Z,70.83
2023-04-01T16:36:50.903Z,71.20
2023-04-01T16:39:45.092Z,71.44
2023-04-01T16:42:34.364Z,71.84
2023-04-01T16:45:08.709Z,72.14
2023-04-01T16:47:46.641Z,72.36
2023-04-01T16:50:15.380Z,72.64
2023-04-01T16:53:01.116Z,72.97
2023-04-01T16:55:49.413Z,73.34
2023-04-01T16:59:03.765Z,73.61
2023-04-01T17:01:46.379Z,74.11
2023-04-01T17:04:39.790Z,74.33
2023-04-01T17:07:32.403Z,74.52
2023-04-01T17:10:29.776Z,74.70
2023-04-01T17:13:29.072Z,74.65
2023-04-01T17:16:35.650Z,74.86
2023-04-01T17:19:13.965Z,75.13
2023-04-01T17:21:58.750Z,75.31
2023-04-01T17:24:51.300Z,75.39
2023-04-01T17:27:25.180Z,75.63
2023-04-01T17:30:12.218Z,75.98
2023-04-01T17:32:59.393Z,75.96
2023-04-01T17:35:34.205Z,76.23
2023-04-01T17:38:15.274Z,76.38
2023-04-01T17:40:51.815Z,76.61
2023-04-01T17:43:56.448Z,76.89
2023-04-01T17:46:53.626Z,76.99
2023-04-01T17:49:31.929Z,77.16
2023-04-01T17:52:09.720Z,77.41
2023-04-01T17:55:15.790Z,77.61
2023-04-01T17:58:02.918Z,77.66
2023-04-01T18:00:53.121Z,77.67
2023-04-01T18:03:30.056Z,77.84
2023-04-01T18:06:46.296Z,77.85
2023-04-01T18:10:17.453Z,78.00
2023-04-01T18:13:13.377Z,77.78
2023-04-01T18:16:04.028Z,77.98
2023-04-01T18:18:42.291Z,78.12
2023-04-01T18:21:40.674Z,78.07
2023-04-01T18:24:51.044Z,78.18
2023-04-01T18:27:23.930Z,78.33
2023-04-01T18:30:12.910Z,78.58
2023-04-01T18:33:25.517Z,78.74
2023-04-01T18:36:42.638Z,79.17
2023-04-01T18:39:13.476Z,79.23
2023-04-01T18:41:42.252Z,79.63
2023-04-01T18:44:50.000Z,79.82
2023-04-01T18:47:33.528Z,79.75
2023-04-01T18:50:45.106Z,80.05
2023-04-01T18:53:35.810Z,80.16
2023-04-01T18:56:05.095Z,80.41
2023-04-01T18:58:33.503Z,80.36
2023-04-01T19:01:24.870Z,80.37
2023-04-01T19:04:12.350Z,80.56
2023-04-01T19:06:48.921Z,80.78
2023-04-01T19:09:23.180Z,80.78
2023-04-01T19:11:56.051Z,80.58
2023-04-01T19:14:54.336Z,80.48
2023-04-01T19:17:29.154Z,80.48
2023-04-01T19:20:46.981Z,80.60
2023-04-01T19:23:25.401Z,80.61
2023-04-01T19:25:56.659Z,80.72
2023-04-01T19:28:36.296Z,80.74
2023-04-01T19:31:32.359Z,80.92
2023-04-01T19:34:24.353Z,81.13
2023-04-01T19:37:04.834Z,81.14
2023-04-01T19:39:52.820Z,81.41
2023-04-01T19:42:24.328Z,81.35
2023-04-01T19:45:02.130Z,81.41
2023-04-01T19:47:55.957Z,81.27
2023-04-01T19:50:40.787Z,81.26
2023-04-01T19:53:34.146Z,81.37
2023-04-01T19:56:32.754Z,81.38
2023-04-01T19:59:20.677Z,81.06
2023-04-01T20:02:16.921Z,81.12
2023-04-01T20:04:47.451Z,81.07
2023-04-01T20:07:34.378Z,81.05
2023-04-01T20:10:09.713Z,80.86
2023-04-01T20:12:44.596Z,80.92
2023-04-01T20:15:28.588Z,80.82
2023-04-01T20:17:58.388Z,80.79
2023-04-01T20:22:46.983Z,80.65
2023-04-01T20:25:27.752Z,80.47
2023-04-01T20:27:57.363Z,80.35
2023-04-01T20:30:38.026Z,80.30
2023-04-01T20:33:18.290Z,80.28
2023-04-01T20:36:07.403Z,80.20
2023-04-01T20:38:52.170Z,80.16
2023-04-01T20:41:25.524Z,80.12
2023-04-01T20:44:33.433Z,80.16
2023-04-01T20:47:12.365Z,80.12
2023-04-01T20:49:48.630Z,80.05
2023-04-01T20:52:17.014Z,80.02
2023-04-01T20:55:40.694Z,80.09
2023-04-01T20:58:22.286Z,80.13
2023-04-01T21:00:56.782Z,80.17
2023-04-01T21:03:50.076Z,80.10
2023-04-01T21:06:45.905Z,80.38
2023-04-01T21:09:23.707Z,80.62
2023-04-01T21:12:28.752Z,80.67
2023-04-01T21:15:13.110Z,80.76
2023-04-01T21:18:05.384Z,81.21
2023-04-01T21:20:59.232Z,81.40
2023-04-01T21:23:49.115Z,81.28
2023-04-01T21:26:28.352Z,81.16
2023-04-01T21:29:36.772Z,81.22
2023-04-01T21:32:37.730Z,81.41
2023-04-01T21:35:19.617Z,81.51
2023-04-01T21:38:02.541Z,81.33
2023-04-01T21:41:00.925Z,81.29
2023-04-01T21:43:56.572Z,81.17
2023-04-01T21:46:41.178Z,81.20
2023-04-01T21:49:28.399Z,81.02
2023-04-01T21:52:06.047Z,80.88
2023-04-01T21:55:12.201Z,80.99
2023-04-01T21:58:05.777Z,81.11
2023-04-01T22:00:38.560Z,81.21
2023-04-01T22:03:41.093Z,81.10
2023-04-01T22:06:28.161Z,81.29
2023-04-01T22:09:39.149Z,81.25
2023-04-01T22:12:14.694Z,81.25
2023-04-01T22:14:49.321Z,81.04
2023-04-01T22:17:30.831Z,81.11
2023-04-01T22:20:24.588Z,81.24
2023-04-01T22:23:15.088Z,81.33
2023-04-01T22:26:04.368Z,81.33
2023-04-01T22:29:01.311Z,81.27
2023-04-01T22:31:34.341Z,81.64
2023-04-01T22:34:15.794Z,81.59
2023-04-01T22:36:59.128Z,81.73
2023-04-01T22:39:52.905Z,81.44
2023-04-01T22:42:43.231Z,81.29
2023-04-01T22:45:22.436Z,81.49
2023-04-01T22:48:10.284Z,81.50
2023-04-01T22:50:56.200Z,81.57
2023-04-01T22:53:28.851Z,81.33
2023-04-01T22:55:58.918Z,81.46
2023-04-01T22:58:40.059Z,81.39
2023-04-01T23:01:20.555Z,81.56
2023-04-01T23:03:50.346Z,81.54
2023-04-01T23:06:32.643Z,81.22
2023-04-01T23:09:32.926Z,81.07
2023-04-01T23:12:12.451Z,81.19
2023-04-01T23:14:57.700Z,81.29
2023-04-01T23:17:49.795Z,81.09
2023-04-01T23:20:54.271Z,81.20
2023-04-01T23:23:48.555Z,81.44
2023-04-01T23:26:38.034Z,81.47
2023-04-01T23:29:27.305Z,81.48
2023-04-01T23:32:00.738Z,81.35
2023-04-01T23:34:31.979Z,81.39
2023-04-01T23:37:12.972Z,81.41
2023-04-01T23:39:42.495Z,81.59
2023-04-01T23:42:17.177Z,81.37
2023-04-01T23:44:45.761Z,81.28
2023-04-01T23:47:25.775Z,81.17
2023-04-01T23:49:59.183Z,81.06
2023-04-01T23:52:31.396Z,80.94
2023-04-01T23:55:02.958Z,80.94
2023-04-01T23:57:35.768Z,80.85
